sensor_id;sensor_type;location;lat;lon;timestamp;pressure;altitude;pressure_sealevel;temperature;humidity
66196;BME280;53000;45.182;5.736;2022-08-25T00:01:56;99118.66;;;26.90;43.53
66196;BME280;53000;45.182;5.736;2022-08-25T00:04:22;99125.63;;;26.88;43.64
66196;BME280;53000;45.182;5.736;2022-08-25T00:06:48;99126.75;;;26.87;44.22
66196;BME280;53000;45.182;5.736;2022-08-25T00:09:19;99127.28;;;26.84;43.22
66196;BME280;53000;45.182;5.736;2022-08-25T00:11:46;99135.06;;;26.82;43.41
66196;BME280;53000;45.182;5.736;2022-08-25T00:14:17;99128.69;;;26.81;43.99
66196;BME280;53000;45.182;5.736;2022-08-25T00:16:43;99123.97;;;26.77;43.84
66196;BME280;53000;45.182;5.736;2022-08-25T00:19:14;99126.75;;;26.77;43.43
66196;BME280;53000;45.182;5.736;2022-08-25T00:21:40;99140.09;;;26.75;44.07
66196;BME280;53000;45.182;5.736;2022-08-25T00:24:07;99141.75;;;26.70;44.25
66196;BME280;53000;45.182;5.736;2022-08-25T00:26:36;99141.75;;;26.70;44.41
66196;BME280;53000;45.182;5.736;2022-08-25T00:29:02;99130.09;;;26.68;44.64
66196;BME280;53000;45.182;5.736;2022-08-25T00:31:28;99125.09;;;26.65;44.14
66196;BME280;53000;45.182;5.736;2022-08-25T00:33:53;99127.03;;;26.65;44.73
66196;BME280;53000;45.182;5.736;2022-08-25T00:36:19;99124.53;;;26.58;44.33
66196;BME280;53000;45.182;5.736;2022-08-25T00:38:46;99117.34;;;26.57;44.28
66196;BME280;53000;45.182;5.736;2022-08-25T00:41:20;99125.63;;;26.52;44.94
66196;BME280;53000;45.182;5.736;2022-08-25T00:43:51;99122.03;;;26.46;45.34
66196;BME280;53000;45.182;5.736;2022-08-25T00:46:28;99121.47;;;26.39;45.12
66196;BME280;53000;45.182;5.736;2022-08-25T00:49:16;99118.72;;;26.29;44.38
66196;BME280;53000;45.182;5.736;2022-08-25T00:51:49;99131.16;;;26.21;45.52
66196;BME280;53000;45.182;5.736;2022-08-25T00:54:19;99126.19;;;26.18;45.43
66196;BME280;53000;45.182;5.736;2022-08-25T00:56:47;99113.13;;;26.14;45.27
66196;BME280;53000;45.182;5.736;2022-08-25T00:59:13;99121.72;;;26.17;45.80
66196;BME280;53000;45.182;5.736;2022-08-25T01:01:40;99113.13;;;26.14;46.28
66196;BME280;53000;45.182;5.736;2022-08-25T01:04:06;99117.59;;;26.09;45.79
66196;BME280;53000;45.182;5.736;2022-08-25T01:06:34;99114.25;;;26.07;46.18
66196;BME280;53000;45.182;5.736;2022-08-25T01:09:00;99113.13;;;26.03;46.69
66196;BME280;53000;45.182;5.736;2022-08-25T01:11:25;99123.38;;;26.03;46.31
66196;BME280;53000;45.182;5.736;2022-08-25T01:13:53;99124.50;;;26.02;46.05
66196;BME280;53000;45.182;5.736;2022-08-25T01:16:21;99130.03;;;26.02;45.63
66196;BME280;53000;45.182;5.736;2022-08-25T01:18:52;99133.91;;;26.01;46.13
66196;BME280;53000;45.182;5.736;2022-08-25T01:21:20;99138.94;;;25.99;46.98
66196;BME280;53000;45.182;5.736;2022-08-25T01:23:47;99141.41;;;25.95;46.68
66196;BME280;53000;45.182;5.736;2022-08-25T01:26:23;99139.16;;;25.92;46.32
66196;BME280;53000;45.182;5.736;2022-08-25T01:28:49;99134.47;;;25.93;46.67
66196;BME280;53000;45.182;5.736;2022-08-25T01:31:35;99130.84;;;25.92;46.36
66196;BME280;53000;45.182;5.736;2022-08-25T01:34:03;99130.00;;;25.91;46.55
66196;BME280;53000;45.182;5.736;2022-08-25T01:36:30;99133.63;;;25.92;46.05
66196;BME280;53000;45.182;5.736;2022-08-25T01:38:56;99142.50;;;25.89;46.31
66196;BME280;53000;45.182;5.736;2022-08-25T01:44:16;99132.47;;;25.78;46.23
66196;BME280;53000;45.182;5.736;2022-08-25T01:46:41;99139.91;;;25.72;46.38
66196;BME280;53000;45.182;5.736;2022-08-25T01:49:07;99150.19;;;25.71;46.24
66196;BME280;53000;45.182;5.736;2022-08-25T01:51:38;99150.19;;;25.71;46.60
66196;BME280;53000;45.182;5.736;2022-08-25T01:54:04;99152.13;;;25.71;46.93
66196;BME280;53000;45.182;5.736;2022-08-25T01:56:30;99146.28;;;25.67;46.73
66196;BME280;53000;45.182;5.736;2022-08-25T01:58:56;99149.88;;;25.63;46.91
66196;BME280;53000;45.182;5.736;2022-08-25T02:01:23;99142.66;;;25.62;46.77
66196;BME280;53000;45.182;5.736;2022-08-25T02:03:50;99144.84;;;25.60;46.47
66196;BME280;53000;45.182;5.736;2022-08-25T02:06:23;99144.28;;;25.58;47.06
66196;BME280;53000;45.182;5.736;2022-08-25T02:08:54;99144.03;;;25.59;47.29
66196;BME280;53000;45.182;5.736;2022-08-25T02:11:20;99136.28;;;25.56;46.85
66196;BME280;53000;45.182;5.736;2022-08-25T02:13:47;99140.09;;;25.45;47.13
66196;BME280;53000;45.182;5.736;2022-08-25T02:16:21;99150.34;;;25.39;47.59
66196;BME280;53000;45.182;5.736;2022-08-25T02:18:47;99152.53;;;25.37;47.26
66196;BME280;53000;45.182;5.736;2022-08-25T02:21:13;99148.94;;;25.37;47.34
66196;BME280;53000;45.182;5.736;2022-08-25T02:23:40;99148.63;;;25.33;47.29
66196;BME280;53000;45.182;5.736;2022-08-25T02:26:06;99143.34;;;25.26;47.97
66196;BME280;53000;45.182;5.736;2022-08-25T02:28:31;99144.97;;;25.22;48.55
66196;BME280;53000;45.182;5.736;2022-08-25T02:30:57;99134.63;;;25.13;47.15
66196;BME280;53000;45.182;5.736;2022-08-25T02:33:22;99139.84;;;25.04;48.67
66196;BME280;53000;45.182;5.736;2022-08-25T02:35:48;99145.88;;;24.96;48.68
66196;BME280;53000;45.182;5.736;2022-08-25T02:38:13;99141.72;;;24.93;48.42
66196;BME280;53000;45.182;5.736;2022-08-25T02:40:39;99139.78;;;24.94;48.27
66196;BME280;53000;45.182;5.736;2022-08-25T02:43:04;99142.28;;;24.95;48.33
66196;BME280;53000;45.182;5.736;2022-08-25T02:45:30;99140.41;;;25.01;49.11
66196;BME280;53000;45.182;5.736;2022-08-25T02:47:56;99135.69;;;25.01;48.30
66196;BME280;53000;45.182;5.736;2022-08-25T02:50:22;99143.16;;;25.01;48.55
66196;BME280;53000;45.182;5.736;2022-08-25T02:52:47;99129.03;;;24.97;48.23
66196;BME280;53000;45.182;5.736;2022-08-25T02:55:15;99128.44;;;24.95;49.21
66196;BME280;53000;45.182;5.736;2022-08-25T02:57:41;99125.94;;;24.94;48.32
66196;BME280;53000;45.182;5.736;2022-08-25T03:00:09;99132.84;;;24.91;48.13
66196;BME280;53000;45.182;5.736;2022-08-25T03:02:35;99123.16;;;24.88;49.04
66196;BME280;53000;45.182;5.736;2022-08-25T03:05:01;99127.03;;;24.87;48.74
66196;BME280;53000;45.182;5.736;2022-08-25T03:07:26;99133.41;;;24.88;48.52
66196;BME280;53000;45.182;5.736;2022-08-25T03:09:51;99127.28;;;24.86;48.46
66196;BME280;53000;45.182;5.736;2022-08-25T03:12:17;99121.19;;;24.84;48.54
66196;BME280;53000;45.182;5.736;2022-08-25T03:14:42;99121.44;;;24.82;48.38
66196;BME280;53000;45.182;5.736;2022-08-25T03:17:08;99126.41;;;24.80;48.71
66196;BME280;53000;45.182;5.736;2022-08-25T03:19:34;99119.47;;;24.78;49.01
66196;BME280;53000;45.182;5.736;2022-08-25T03:22:00;99121.19;;;24.84;48.07
66196;BME280;53000;45.182;5.736;2022-08-25T03:24:25;99122.56;;;24.81;48.65
66196;BME280;53000;45.182;5.736;2022-08-25T03:26:51;99128.09;;;24.81;48.47
66196;BME280;53000;45.182;5.736;2022-08-25T03:29:29;99128.03;;;24.76;48.78
66196;BME280;53000;45.182;5.736;2022-08-25T03:31:55;99125.81;;;24.73;49.27
66196;BME280;53000;45.182;5.736;2022-08-25T03:34:25;99121.38;;;24.72;49.00
66196;BME280;53000;45.182;5.736;2022-08-25T03:36:52;99123.56;;;24.70;48.95
66196;BME280;53000;45.182;5.736;2022-08-25T03:39:20;99125.50;;;24.69;49.37
66196;BME280;53000;45.182;5.736;2022-08-25T03:41:46;99120.53;;;24.66;49.20
66196;BME280;53000;45.182;5.736;2022-08-25T03:44:12;99125.50;;;24.64;49.15
66196;BME280;53000;45.182;5.736;2022-08-25T03:46:44;99126.00;;;24.61;49.17
66196;BME280;53000;45.182;5.736;2022-08-25T03:49:13;99124.59;;;24.59;49.26
66196;BME280;53000;45.182;5.736;2022-08-25T03:51:42;99129.56;;;24.57;49.52
66196;BME280;53000;45.182;5.736;2022-08-25T03:54:09;99127.91;;;24.56;49.20
66196;BME280;53000;45.182;5.736;2022-08-25T03:56:35;99122.06;;;24.52;49.70
66196;BME280;53000;45.182;5.736;2022-08-25T03:59:01;99122.31;;;24.51;50.08
66196;BME280;53000;45.182;5.736;2022-08-25T04:01:28;99134.16;;;24.46;50.35
66196;BME280;53000;45.182;5.736;2022-08-25T04:03:53;99136.34;;;24.44;50.23
66196;BME280;53000;45.182;5.736;2022-08-25T04:06:19;99141.31;;;24.42;49.88
66196;BME280;53000;45.182;5.736;2022-08-25T04:08:46;99128.53;;;24.36;50.13
66196;BME280;53000;45.182;5.736;2022-08-25T04:11:17;99137.41;;;24.38;49.59
66196;BME280;53000;45.182;5.736;2022-08-25T04:13:45;99131.31;;;24.36;49.64
66196;BME280;53000;45.182;5.736;2022-08-25T04:16:37;99141.78;;;24.34;49.48
66196;BME280;53000;45.182;5.736;2022-08-25T04:19:04;99132.94;;;24.32;50.07
66196;BME280;53000;45.182;5.736;2022-08-25T04:21:33;99118.97;;;24.16;49.36
66196;BME280;53000;45.182;5.736;2022-08-25T04:23:59;99130.66;;;24.23;49.75
66196;BME280;53000;45.182;5.736;2022-08-25T04:26:34;99134.22;;;24.19;50.09
66196;BME280;53000;45.182;5.736;2022-08-25T04:29:01;99137.75;;;24.14;49.62
66196;BME280;53000;45.182;5.736;2022-08-25T04:31:29;99127.78;;;24.13;49.38
66196;BME280;53000;45.182;5.736;2022-08-25T04:33:54;99134.38;;;24.07;50.04
66196;BME280;53000;45.182;5.736;2022-08-25T04:36:20;99128.84;;;24.07;49.50
66196;BME280;53000;45.182;5.736;2022-08-25T04:38:46;99131.59;;;24.07;49.81
66196;BME280;53000;45.182;5.736;2022-08-25T04:41:14;99132.97;;;24.04;49.79
66196;BME280;53000;45.182;5.736;2022-08-25T04:43:41;99140.13;;;24.00;49.85
66196;BME280;53000;45.182;5.736;2022-08-25T04:46:12;99145.53;;;23.90;50.59
66196;BME280;53000;45.182;5.736;2022-08-25T04:48:38;99143.22;;;23.82;50.42
66196;BME280;53000;45.182;5.736;2022-08-25T04:51:10;99135.97;;;23.76;50.38
66196;BME280;53000;45.182;5.736;2022-08-25T04:53:37;99145.00;;;23.71;50.45
66196;BME280;53000;45.182;5.736;2022-08-25T04:56:08;99145.88;;;23.72;50.43
66196;BME280;53000;45.182;5.736;2022-08-25T04:58:35;99149.47;;;23.72;50.85
66196;BME280;53000;45.182;5.736;2022-08-25T05:01:06;99140.34;;;23.72;50.77
66196;BME280;53000;45.182;5.736;2022-08-25T05:03:32;99141.75;;;23.74;50.57
66196;BME280;53000;45.182;5.736;2022-08-25T05:05:57;99150.66;;;23.76;50.84
66196;BME280;53000;45.182;5.736;2022-08-25T05:08:23;99152.31;;;23.77;51.16
66196;BME280;53000;45.182;5.736;2022-08-25T05:10:48;99150.38;;;23.78;50.65
66196;BME280;53000;45.182;5.736;2022-08-25T05:13:14;99153.72;;;23.80;50.93
66196;BME280;53000;45.182;5.736;2022-08-25T05:15:40;99146.53;;;23.79;50.78
66196;BME280;53000;45.182;5.736;2022-08-25T05:18:19;99142.81;;;23.73;50.71
66196;BME280;53000;45.182;5.736;2022-08-25T05:20:45;99147.53;;;23.73;49.98
66196;BME280;53000;45.182;5.736;2022-08-25T05:23:10;99154.41;;;23.70;50.82
66196;BME280;53000;45.182;5.736;2022-08-25T05:25:35;99157.41;;;23.68;50.80
66196;BME280;53000;45.182;5.736;2022-08-25T05:28:01;99149.38;;;23.67;50.81
66196;BME280;53000;45.182;5.736;2022-08-25T05:30:27;99152.72;;;23.69;50.86
66196;BME280;53000;45.182;5.736;2022-08-25T05:32:53;99150.50;;;23.66;51.34
66196;BME280;53000;45.182;5.736;2022-08-25T05:35:18;99157.16;;;23.70;51.46
66196;BME280;53000;45.182;5.736;2022-08-25T05:37:45;99152.56;;;23.76;51.08
66196;BME280;53000;45.182;5.736;2022-08-25T05:40:10;99158.97;;;23.81;50.95
66196;BME280;53000;45.182;5.736;2022-08-25T05:42:36;99158.78;;;23.88;51.03
66196;BME280;53000;45.182;5.736;2022-08-25T05:45:03;99153.81;;;23.90;51.13
66196;BME280;53000;45.182;5.736;2022-08-25T05:47:31;99152.25;;;23.99;50.94
66196;BME280;53000;45.182;5.736;2022-08-25T05:49:56;99163.06;;;24.01;50.40
66196;BME280;53000;45.182;5.736;2022-08-25T05:52:22;99160.28;;;24.01;50.38
66196;BME280;53000;45.182;5.736;2022-08-25T05:54:47;99161.66;;;23.98;50.49
66196;BME280;53000;45.182;5.736;2022-08-25T05:57:13;99163.84;;;23.96;51.05
66196;BME280;53000;45.182;5.736;2022-08-25T05:59:39;99160.50;;;23.94;50.70
66196;BME280;53000;45.182;5.736;2022-08-25T06:02:04;99160.53;;;23.99;50.30
66196;BME280;53000;45.182;5.736;2022-08-25T06:04:48;99155.31;;;23.98;50.39
66196;BME280;53000;45.182;5.736;2022-08-25T06:07:14;99152.81;;;24.01;50.09
66196;BME280;53000;45.182;5.736;2022-08-25T06:09:40;99157.53;;;24.01;50.44
66196;BME280;53000;45.182;5.736;2022-08-25T06:12:07;99160.28;;;24.01;50.06
66196;BME280;53000;45.182;5.736;2022-08-25T06:14:33;99161.44;;;24.05;50.07
66196;BME280;53000;45.182;5.736;2022-08-25T06:16:58;99164.22;;;24.05;50.21
66196;BME280;53000;45.182;5.736;2022-08-25T06:19:25;99165.34;;;24.09;50.26
66196;BME280;53000;45.182;5.736;2022-08-25T06:21:56;99168.44;;;24.13;50.00
66196;BME280;53000;45.182;5.736;2022-08-25T06:24:23;99164.25;;;24.10;50.43
66196;BME280;53000;45.182;5.736;2022-08-25T06:26:50;99171.13;;;24.07;50.09
66196;BME280;53000;45.182;5.736;2022-08-25T06:29:16;99178.66;;;24.12;50.69
66196;BME280;53000;45.182;5.736;2022-08-25T06:31:42;99178.97;;;24.16;50.81
66196;BME280;53000;45.182;5.736;2022-08-25T06:34:07;99176.53;;;24.19;50.80
66196;BME280;53000;45.182;5.736;2022-08-25T06:36:33;99168.03;;;24.26;50.65
66196;BME280;53000;45.182;5.736;2022-08-25T06:38:59;99167.81;;;24.33;50.27
66196;BME280;53000;45.182;5.736;2022-08-25T06:41:24;99181.47;;;24.44;50.56
66196;BME280;53000;45.182;5.736;2022-08-25T06:43:50;99174.72;;;24.57;50.22
66196;BME280;53000;45.182;5.736;2022-08-25T06:46:22;99176.13;;;24.65;50.57
66196;BME280;53000;45.182;5.736;2022-08-25T06:48:48;99176.47;;;24.74;49.93
66196;BME280;53000;45.182;5.736;2022-08-25T06:51:16;99154.91;;;24.76;49.38
66196;BME280;53000;45.182;5.736;2022-08-25T06:53:43;99165.47;;;24.84;49.50
66196;BME280;53000;45.182;5.736;2022-08-25T06:56:09;99158.00;;;24.84;49.53
66196;BME280;53000;45.182;5.736;2022-08-25T06:58:35;99161.91;;;24.88;49.69
66196;BME280;53000;45.182;5.736;2022-08-25T07:01:14;99160.53;;;24.91;49.30
66196;BME280;53000;45.182;5.736;2022-08-25T07:03:40;99158.09;;;25.00;49.60
66196;BME280;53000;45.182;5.736;2022-08-25T07:06:07;99159.53;;;25.07;49.08
66196;BME280;53000;45.182;5.736;2022-08-25T07:08:32;99165.41;;;25.16;49.16
66196;BME280;53000;45.182;5.736;2022-08-25T07:11:04;99155.72;;;25.19;48.62
66196;BME280;53000;45.182;5.736;2022-08-25T07:13:30;99154.13;;;25.23;48.13
66196;BME280;53000;45.182;5.736;2022-08-25T07:15:56;99156.63;;;25.24;48.31
66196;BME280;53000;45.182;5.736;2022-08-25T07:18:21;99148.88;;;25.26;48.29
66196;BME280;53000;45.182;5.736;2022-08-25T07:20:47;99145.59;;;25.35;48.44
66196;BME280;53000;45.182;5.736;2022-08-25T07:23:12;99141.19;;;25.39;47.91
66196;BME280;53000;45.182;5.736;2022-08-25T07:25:38;99133.72;;;25.44;47.73
66196;BME280;53000;45.182;5.736;2022-08-25T07:28:03;99134.31;;;25.52;47.35
66196;BME280;53000;45.182;5.736;2022-08-25T07:30:29;99134.31;;;25.57;47.12
66196;BME280;53000;45.182;5.736;2022-08-25T07:32:54;99130.47;;;25.63;47.44
66196;BME280;53000;45.182;5.736;2022-08-25T07:35:20;99132.13;;;25.64;46.74
66196;BME280;53000;45.182;5.736;2022-08-25T07:37:53;99133.50;;;25.66;47.24
66196;BME280;53000;45.182;5.736;2022-08-25T07:40:27;99123.56;;;25.70;47.07
66196;BME280;53000;45.182;5.736;2022-08-25T07:42:56;99127.75;;;25.73;46.57
66196;BME280;53000;45.182;5.736;2022-08-25T07:45:24;99125.25;;;25.82;47.06
66196;BME280;53000;45.182;5.736;2022-08-25T07:48:06;99126.09;;;25.87;46.23
66196;BME280;53000;45.182;5.736;2022-08-25T07:50:34;99128.31;;;25.85;45.96
66196;BME280;53000;45.182;5.736;2022-08-25T07:53:00;99126.94;;;25.88;46.44
66196;BME280;53000;45.182;5.736;2022-08-25T07:55:27;99138.63;;;26.00;46.23
66196;BME280;53000;45.182;5.736;2022-08-25T07:57:54;99133.09;;;26.10;46.01
66196;BME280;53000;45.182;5.736;2022-08-25T08:00:20;99128.41;;;26.21;45.79
66196;BME280;53000;45.182;5.736;2022-08-25T08:02:46;99129.25;;;26.27;45.38
66196;BME280;53000;45.182;5.736;2022-08-25T08:05:12;99134.25;;;26.35;45.38
66196;BME280;53000;45.182;5.736;2022-08-25T08:07:39;99127.84;;;26.45;45.87
66196;BME280;53000;45.182;5.736;2022-08-25T08:10:06;99127.84;;;26.55;45.02
66196;BME280;53000;45.182;5.736;2022-08-25T08:12:33;99135.09;;;26.66;44.79
66196;BME280;53000;45.182;5.736;2022-08-25T08:14:58;99138.69;;;26.77;44.85
66196;BME280;53000;45.182;5.736;2022-08-25T08:17:24;99133.41;;;26.86;44.56
66196;BME280;53000;45.182;5.736;2022-08-25T08:19:49;99132.56;;;26.96;44.04
66196;BME280;53000;45.182;5.736;2022-08-25T08:22:15;99136.97;;;27.07;43.58
66196;BME280;53000;45.182;5.736;2022-08-25T08:24:42;99130.56;;;27.17;43.77
66196;BME280;53000;45.182;5.736;2022-08-25T08:27:09;99128.06;;;27.25;43.69
66196;BME280;53000;45.182;5.736;2022-08-25T08:29:35;99126.09;;;27.31;43.39
66196;BME280;53000;45.182;5.736;2022-08-25T08:32:03;99129.38;;;27.43;42.95
66196;BME280;53000;45.182;5.736;2022-08-25T08:34:29;99118.41;;;27.67;43.00
66196;BME280;53000;45.182;5.736;2022-08-25T08:36:55;99119.28;;;28.81;41.74
66196;BME280;53000;45.182;5.736;2022-08-25T08:39:21;99115.59;;;30.39;38.02
66196;BME280;53000;45.182;5.736;2022-08-25T08:53:24;99116.63;;;36.62;30.71
66196;BME280;53000;45.182;5.736;2022-08-25T08:55:55;99107.25;;;37.16;28.95
66196;BME280;53000;45.182;5.736;2022-08-25T08:58:29;99105.72;;;37.80;30.18
66196;BME280;53000;45.182;5.736;2022-08-25T09:01:00;99106.94;;;38.48;27.72
66196;BME280;53000;45.182;5.736;2022-08-25T09:03:41;99105.38;;;39.23;27.26
66196;BME280;53000;45.182;5.736;2022-08-25T09:06:11;99103.44;;;39.78;27.54
66196;BME280;53000;45.182;5.736;2022-08-25T09:08:38;99108.34;;;40.33;26.10
66196;BME280;53000;45.182;5.736;2022-08-25T09:18:00;99100.03;;;41.55;25.22
66196;BME280;53000;45.182;5.736;2022-08-25T09:20:57;99105.69;;;42.05;23.82
66196;BME280;53000;45.182;5.736;2022-08-25T09:23:32;99094.41;;;42.42;22.19
66196;BME280;53000;45.182;5.736;2022-08-25T09:28:47;99096.28;;;43.06;21.41
66196;BME280;53000;45.182;5.736;2022-08-25T09:31:20;99088.28;;;43.22;23.45
66196;BME280;53000;45.182;5.736;2022-08-25T09:33:45;99082.75;;;43.40;22.05
66196;BME280;53000;45.182;5.736;2022-08-25T09:36:11;99081.09;;;43.36;20.87
66196;BME280;53000;45.182;5.736;2022-08-25T09:38:37;99075.69;;;43.23;20.53
66196;BME280;53000;45.182;5.736;2022-08-25T09:41:03;99076.16;;;42.84;20.97
66196;BME280;53000;45.182;5.736;2022-08-25T09:44:01;99064.97;;;42.65;20.73
66196;BME280;53000;45.182;5.736;2022-08-25T09:46:25;99066.19;;;42.64;20.35
66196;BME280;53000;45.182;5.736;2022-08-25T09:48:56;99055.06;;;42.52;21.60
66196;BME280;53000;45.182;5.736;2022-08-25T09:51:27;99058.69;;;42.48;21.90
66196;BME280;53000;45.182;5.736;2022-08-25T09:53:57;99054.56;;;42.42;20.53
66196;BME280;53000;45.182;5.736;2022-08-25T09:56:27;99056.13;;;42.40;20.37
66196;BME280;53000;45.182;5.736;2022-08-25T09:58:55;99056.19;;;42.43;21.07
66196;BME280;53000;45.182;5.736;2022-08-25T10:01:22;99050.44;;;42.40;20.43
66196;BME280;53000;45.182;5.736;2022-08-25T10:04:03;99050.72;;;42.27;21.54
66196;BME280;53000;45.182;5.736;2022-08-25T10:06:36;99046.47;;;42.14;21.36
66196;BME280;53000;45.182;5.736;2022-08-25T10:09:07;99045.00;;;41.94;21.26
66196;BME280;53000;45.182;5.736;2022-08-25T10:11:37;99038.44;;;41.89;21.91
66196;BME280;53000;45.182;5.736;2022-08-25T10:16:35;99031.75;;;41.48;19.43
66196;BME280;53000;45.182;5.736;2022-08-25T10:19:05;99019.91;;;41.16;19.97
66196;BME280;53000;45.182;5.736;2022-08-25T10:21:32;99012.19;;;40.70;20.44
66196;BME280;53000;45.182;5.736;2022-08-25T10:23:58;99007.00;;;40.30;21.53
66196;BME280;53000;45.182;5.736;2022-08-25T10:31:55;99004.72;;;39.80;22.60
66196;BME280;53000;45.182;5.736;2022-08-25T10:37:14;98989.03;;;40.02;22.76
66196;BME280;53000;45.182;5.736;2022-08-25T10:42:31;98975.31;;;40.27;21.16
66196;BME280;53000;45.182;5.736;2022-08-25T10:45:24;98978.16;;;40.27;21.82
66196;BME280;53000;45.182;5.736;2022-08-25T10:50:57;98966.41;;;40.06;21.71
66196;BME280;53000;45.182;5.736;2022-08-25T10:56:22;98969.00;;;40.15;22.46
66196;BME280;53000;45.182;5.736;2022-08-25T10:59:12;98961.47;;;40.22;22.47
66196;BME280;53000;45.182;5.736;2022-08-25T11:07:40;98950.94;;;40.23;22.78
66196;BME280;53000;45.182;5.736;2022-08-25T11:10:13;98947.59;;;40.37;21.45
66196;BME280;53000;45.182;5.736;2022-08-25T11:12:43;98943.91;;;40.36;22.04
66196;BME280;53000;45.182;5.736;2022-08-25T11:15:24;98943.53;;;40.38;22.25
66196;BME280;53000;45.182;5.736;2022-08-25T11:17:58;98938.22;;;40.36;22.51
66196;BME280;53000;45.182;5.736;2022-08-25T11:20:59;98929.25;;;40.31;22.53
66196;BME280;53000;45.182;5.736;2022-08-25T11:23:32;98924.38;;;40.31;21.94
66196;BME280;53000;45.182;5.736;2022-08-25T11:26:05;98923.94;;;40.29;21.71
66196;BME280;53000;45.182;5.736;2022-08-25T11:28:42;98909.41;;;40.11;20.69
66196;BME280;53000;45.182;5.736;2022-08-25T11:31:13;98911.00;;;39.89;21.25
66196;BME280;53000;45.182;5.736;2022-08-25T11:33:39;98900.50;;;39.70;21.21
66196;BME280;53000;45.182;5.736;2022-08-25T11:36:26;98894.63;;;39.59;22.05
66196;BME280;53000;45.182;5.736;2022-08-25T11:39:15;98897.16;;;39.64;21.54
66196;BME280;53000;45.182;5.736;2022-08-25T11:42:04;98899.00;;;39.76;21.63
66196;BME280;53000;45.182;5.736;2022-08-25T11:50:07;98888.00;;;39.52;21.29
66196;BME280;53000;45.182;5.736;2022-08-25T11:55:12;98880.19;;;39.29;21.32
66196;BME280;53000;45.182;5.736;2022-08-25T11:57:40;98877.53;;;39.17;21.14
66196;BME280;53000;45.182;5.736;2022-08-25T12:00:12;98873.69;;;39.09;22.00
66196;BME280;53000;45.182;5.736;2022-08-25T12:02:46;98876.44;;;39.05;21.59
66196;BME280;53000;45.182;5.736;2022-08-25T12:10:18;98883.72;;;38.71;22.03
66196;BME280;53000;45.182;5.736;2022-08-25T12:18:10;98867.31;;;38.61;22.33
66196;BME280;53000;45.182;5.736;2022-08-25T12:25:57;98861.13;;;38.55;21.62
66196;BME280;53000;45.182;5.736;2022-08-25T12:36:33;98851.81;;;38.23;22.90
66196;BME280;53000;45.182;5.736;2022-08-25T12:39:29;98853.72;;;38.19;23.11
66196;BME280;53000;45.182;5.736;2022-08-25T12:42:01;98843.97;;;38.16;22.50
66196;BME280;53000;45.182;5.736;2022-08-25T12:47:10;98843.34;;;38.23;22.41
66196;BME280;53000;45.182;5.736;2022-08-25T12:49:36;98832.75;;;38.36;21.03
66196;BME280;53000;45.182;5.736;2022-08-25T12:52:20;98827.72;;;38.45;20.19
66196;BME280;53000;45.182;5.736;2022-08-25T12:54:52;98831.56;;;38.53;20.92
66196;BME280;53000;45.182;5.736;2022-08-25T13:00:18;98825.50;;;38.70;20.41
66196;BME280;53000;45.182;5.736;2022-08-25T13:03:18;98818.38;;;38.76;19.74
66196;BME280;53000;45.182;5.736;2022-08-25T13:06:06;98821.94;;;38.73;18.15
66196;BME280;53000;45.182;5.736;2022-08-25T13:11:31;98817.84;;;38.71;17.75
66196;BME280;53000;45.182;5.736;2022-08-25T13:14:13;98818.84;;;38.78;18.27
66196;BME280;53000;45.182;5.736;2022-08-25T13:16:51;98816.50;;;38.84;19.17
66196;BME280;53000;45.182;5.736;2022-08-25T13:19:19;98817.81;;;38.86;18.00
66196;BME280;53000;45.182;5.736;2022-08-25T13:21:44;98816.28;;;38.93;17.76
66196;BME280;53000;45.182;5.736;2022-08-25T13:24:21;98812.09;;;39.02;19.01
66196;BME280;53000;45.182;5.736;2022-08-25T13:26:53;98811.06;;;39.11;19.43
66196;BME280;53000;45.182;5.736;2022-08-25T13:29:22;98803.31;;;39.27;18.28
66196;BME280;53000;45.182;5.736;2022-08-25T13:31:57;98811.59;;;39.36;18.00
66196;BME280;53000;45.182;5.736;2022-08-25T13:34:26;98810.03;;;39.38;17.52
66196;BME280;53000;45.182;5.736;2022-08-25T13:36:52;98813.22;;;39.37;18.04
66196;BME280;53000;45.182;5.736;2022-08-25T13:39:36;98813.53;;;39.32;18.30
66196;BME280;53000;45.182;5.736;2022-08-25T13:42:05;98803.94;;;39.17;18.09
66196;BME280;53000;45.182;5.736;2022-08-25T13:44:36;98805.78;;;39.09;18.44
66196;BME280;53000;45.182;5.736;2022-08-25T13:47:16;98805.41;;;39.11;19.33
66196;BME280;53000;45.182;5.736;2022-08-25T13:49:45;98798.09;;;39.10;18.92
66196;BME280;53000;45.182;5.736;2022-08-25T13:52:24;98792.00;;;39.08;18.88
66196;BME280;53000;45.182;5.736;2022-08-25T13:54:50;98789.09;;;39.04;19.38
66196;BME280;53000;45.182;5.736;2022-08-25T13:57:25;98795.66;;;39.08;18.99
66196;BME280;53000;45.182;5.736;2022-08-25T14:00:11;98781.97;;;39.10;19.13
66196;BME280;53000;45.182;5.736;2022-08-25T14:02:48;98780.75;;;39.11;19.13
66196;BME280;53000;45.182;5.736;2022-08-25T14:05:26;98781.66;;;39.15;19.32
66196;BME280;53000;45.182;5.736;2022-08-25T14:07:55;98780.38;;;39.13;18.75
66196;BME280;53000;45.182;5.736;2022-08-25T14:16:20;98764.53;;;39.08;19.55
66196;BME280;53000;45.182;5.736;2022-08-25T14:18:53;98766.38;;;39.00;18.89
66196;BME280;53000;45.182;5.736;2022-08-25T14:21:22;98770.09;;;39.04;19.00
66196;BME280;53000;45.182;5.736;2022-08-25T14:23:49;98763.53;;;39.00;19.30
66196;BME280;53000;45.182;5.736;2022-08-25T14:26:16;98760.28;;;38.98;19.95
66196;BME280;53000;45.182;5.736;2022-08-25T14:28:41;98759.97;;;39.03;19.53
66196;BME280;53000;45.182;5.736;2022-08-25T14:31:09;98756.41;;;39.06;20.17
66196;BME280;53000;45.182;5.736;2022-08-25T14:33:39;98764.44;;;39.04;19.77
66196;BME280;53000;45.182;5.736;2022-08-25T14:36:05;98763.63;;;39.04;19.84
66196;BME280;53000;45.182;5.736;2022-08-25T14:38:32;98764.44;;;39.04;19.90
66196;BME280;53000;45.182;5.736;2022-08-25T14:40:58;98761.53;;;39.01;19.75
66196;BME280;53000;45.182;5.736;2022-08-25T14:43:23;98763.84;;;38.95;19.81
66196;BME280;53000;45.182;5.736;2022-08-25T14:45:49;98754.00;;;38.89;19.83
66196;BME280;53000;45.182;5.736;2022-08-25T14:51:13;98749.28;;;38.77;20.14